sensor_id;sensor_type;location;lat;lon;timestamp;P1;durP1;ratioP1;P2;durP2;ratioP2
13325;SDS011;6732;51.044;3.746;2023-03-21T00:00:26;10.20;;;6.37;;
13325;SDS011;6732;51.044;3.746;2023-03-21T00:02:52;9.10;;;6.10;;
13325;SDS011;6732;51.044;3.746;2023-03-21T00:05:18;11.47;;;5.60;;
13325;SDS011;6732;51.044;3.746;2023-03-21T00:07:45;10.63;;;5.87;;
13325;SDS011;6732;51.044;3.746;2023-03-21T00:10:11;10.17;;;6.07;;
13325;SDS011;6732;51.044;3.746;2023-03-21T00:12:38;10.50;;;6.20;;
13325;SDS011;6732;51.044;3.746;2023-03-21T00:15:04;11.97;;;5.50;;
13325;SDS011;6732;51.044;3.746;2023-03-21T00:17:31;11.17;;;5.37;;
13325;SDS011;6732;51.044;3.746;2023-03-21T00:20:06;9.00;;;5.47;;
13325;SDS011;6732;51.044;3.746;2023-03-21T00:22:39;14.23;;;6.30;;
13325;SDS011;6732;51.044;3.746;2023-03-21T00:25:06;12.47;;;5.37;;
13325;SDS011;6732;51.044;3.746;2023-03-21T00:27:33;7.87;;;5.60;;
13325;SDS011;6732;51.044;3.746;2023-03-21T00:30:00;10.63;;;6.27;;
13325;SDS011;6732;51.044;3.746;2023-03-21T00:32:26;8.87;;;5.77;;
13325;SDS011;6732;51.044;3.746;2023-03-21T00:34:52;15.83;;;6.00;;
13325;SDS011;6732;51.044;3.746;2023-03-21T00:37:19;11.13;;;5.83;;
13325;SDS011;6732;51.044;3.746;2023-03-21T00:39:46;10.77;;;5.90;;
13325;SDS011;6732;51.044;3.746;2023-03-21T00:42:14;12.80;;;6.00;;
13325;SDS011;6732;51.044;3.746;2023-03-21T00:44:41;10.37;;;5.67;;
13325;SDS011;6732;51.044;3.746;2023-03-21T00:47:07;12.13;;;5.63;;
13325;SDS011;6732;51.044;3.746;2023-03-21T00:49:34;14.63;;;5.67;;
13325;SDS011;6732;51.044;3.746;2023-03-21T00:52:06;10.43;;;5.20;;
13325;SDS011;6732;51.044;3.746;2023-03-21T00:54:33;10.40;;;5.60;;
13325;SDS011;6732;51.044;3.746;2023-03-21T00:57:00;12.03;;;5.20;;
13325;SDS011;6732;51.044;3.746;2023-03-21T00:59:30;10.37;;;5.00;;
13325;SDS011;6732;51.044;3.746;2023-03-21T01:01:56;10.73;;;5.60;;
13325;SDS011;6732;51.044;3.746;2023-03-21T01:04:24;9.93;;;5.20;;
13325;SDS011;6732;51.044;3.746;2023-03-21T01:06:51;11.77;;;5.03;;
13325;SDS011;6732;51.044;3.746;2023-03-21T01:09:18;10.50;;;5.30;;
13325;SDS011;6732;51.044;3.746;2023-03-21T01:11:45;10.73;;;4.83;;
13325;SDS011;6732;51.044;3.746;2023-03-21T01:14:13;8.27;;;5.13;;
13325;SDS011;6732;51.044;3.746;2023-03-21T01:16:39;13.47;;;5.00;;
13325;SDS011;6732;51.044;3.746;2023-03-21T01:19:06;12.67;;;4.80;;
13325;SDS011;6732;51.044;3.746;2023-03-21T01:21:33;9.20;;;5.17;;
13325;SDS011;6732;51.044;3.746;2023-03-21T01:24:00;8.57;;;5.00;;
13325;SDS011;6732;51.044;3.746;2023-03-21T01:26:27;12.00;;;5.00;;
13325;SDS011;6732;51.044;3.746;2023-03-21T01:28:53;11.13;;;4.70;;
13325;SDS011;6732;51.044;3.746;2023-03-21T01:31:19;9.60;;;4.50;;
13325;SDS011;6732;51.044;3.746;2023-03-21T01:33:46;9.83;;;4.70;;
13325;SDS011;6732;51.044;3.746;2023-03-21T01:36:14;8.60;;;4.60;;
13325;SDS011;6732;51.044;3.746;2023-03-21T01:38:41;10.50;;;4.23;;
13325;SDS011;6732;51.044;3.746;2023-03-21T01:41:23;10.87;;;4.70;;
13325;SDS011;6732;51.044;3.746;2023-03-21T01:43:50;9.10;;;4.60;;
13325;SDS011;6732;51.044;3.746;2023-03-21T01:51:26;10.80;;;4.73;;
13325;SDS011;6732;51.044;3.746;2023-03-21T01:53:53;11.97;;;5.13;;
13325;SDS011;6732;51.044;3.746;2023-03-21T01:56:24;8.57;;;4.07;;
13325;SDS011;6732;51.044;3.746;2023-03-21T01:58:51;10.43;;;4.90;;
13325;SDS011;6732;51.044;3.746;2023-03-21T02:01:19;12.93;;;4.50;;
13325;SDS011;6732;51.044;3.746;2023-03-21T02:03:47;10.87;;;5.60;;
13325;SDS011;6732;51.044;3.746;2023-03-21T02:06:23;7.63;;;5.13;;
13325;SDS011;6732;51.044;3.746;2023-03-21T02:08:55;9.77;;;5.37;;
13325;SDS011;6732;51.044;3.746;2023-03-21T02:11:22;10.17;;;5.43;;
13325;SDS011;6732;51.044;3.746;2023-03-21T02:13:48;10.97;;;6.00;;
13325;SDS011;6732;51.044;3.746;2023-03-21T02:18:44;7.90;;;5.43;;
13325;SDS011;6732;51.044;3.746;2023-03-21T02:21:21;12.07;;;5.47;;
13325;SDS011;6732;51.044;3.746;2023-03-21T02:28:47;9.87;;;5.60;;
13325;SDS011;6732;51.044;3.746;2023-03-21T02:31:21;10.50;;;6.13;;
13325;SDS011;6732;51.044;3.746;2023-03-21T02:36:27;9.00;;;5.50;;
13325;SDS011;6732;51.044;3.746;2023-03-21T02:43:58;9.03;;;5.93;;
13325;SDS011;6732;51.044;3.746;2023-03-21T02:46:29;9.03;;;5.00;;
13325;SDS011;6732;51.044;3.746;2023-03-21T02:49:08;8.97;;;5.33;;
13325;SDS011;6732;51.044;3.746;2023-03-21T02:51:36;9.47;;;5.77;;
13325;SDS011;6732;51.044;3.746;2023-03-21T02:54:05;9.73;;;5.17;;
13325;SDS011;6732;51.044;3.746;2023-03-21T02:56:32;11.87;;;5.77;;
13325;SDS011;6732;51.044;3.746;2023-03-21T02:59:01;10.00;;;5.47;;
13325;SDS011;6732;51.044;3.746;2023-03-21T03:01:31;10.60;;;5.57;;
13325;SDS011;6732;51.044;3.746;2023-03-21T03:03:57;7.10;;;5.50;;
13325;SDS011;6732;51.044;3.746;2023-03-21T03:06:25;9.40;;;5.20;;
13325;SDS011;6732;51.044;3.746;2023-03-21T03:09:14;10.47;;;5.33;;
13325;SDS011;6732;51.044;3.746;2023-03-21T03:11:43;8.37;;;5.20;;
13325;SDS011;6732;51.044;3.746;2023-03-21T03:19:25;10.83;;;5.17;;
13325;SDS011;6732;51.044;3.746;2023-03-21T03:22:02;8.30;;;5.33;;
13325;SDS011;6732;51.044;3.746;2023-03-21T03:24:32;11.30;;;5.40;;
13325;SDS011;6732;51.044;3.746;2023-03-21T03:27:07;12.37;;;5.53;;
13325;SDS011;6732;51.044;3.746;2023-03-21T03:29:36;8.63;;;5.10;;
13325;SDS011;6732;51.044;3.746;2023-03-21T03:32:14;11.33;;;4.90;;
13325;SDS011;6732;51.044;3.746;2023-03-21T03:34:43;10.83;;;5.33;;
13325;SDS011;6732;51.044;3.746;2023-03-21T03:37:15;10.67;;;5.33;;
13325;SDS011;6732;51.044;3.746;2023-03-21T03:39:44;8.97;;;5.40;;
13325;SDS011;6732;51.044;3.746;2023-03-21T03:42:16;8.70;;;4.90;;
13325;SDS011;6732;51.044;3.746;2023-03-21T03:44:44;7.93;;;5.17;;
13325;SDS011;6732;51.044;3.746;2023-03-21T03:47:11;8.37;;;5.20;;
13325;SDS011;6732;51.044;3.746;2023-03-21T03:49:45;10.20;;;5.00;;
13325;SDS011;6732;51.044;3.746;2023-03-21T03:52:17;8.67;;;5.40;;
13325;SDS011;6732;51.044;3.746;2023-03-21T03:54:45;7.80;;;4.77;;
13325;SDS011;6732;51.044;3.746;2023-03-21T03:57:12;9.57;;;5.40;;
13325;SDS011;6732;51.044;3.746;2023-03-21T03:59:40;9.20;;;4.57;;
13325;SDS011;6732;51.044;3.746;2023-03-21T04:02:07;9.20;;;5.40;;
13325;SDS011;6732;51.044;3.746;2023-03-21T04:04:33;10.43;;;5.43;;
13325;SDS011;6732;51.044;3.746;2023-03-21T04:07:01;10.43;;;4.80;;
13325;SDS011;6732;51.044;3.746;2023-03-21T04:09:28;10.60;;;5.00;;
13325;SDS011;6732;51.044;3.746;2023-03-21T04:11:55;9.07;;;5.00;;
13325;SDS011;6732;51.044;3.746;2023-03-21T04:14:22;14.00;;;5.40;;
13325;SDS011;6732;51.044;3.746;2023-03-21T04:16:48;9.43;;;5.20;;
13325;SDS011;6732;51.044;3.746;2023-03-21T04:19:16;10.43;;;5.53;;
13325;SDS011;6732;51.044;3.746;2023-03-21T04:21:43;11.63;;;5.43;;
13325;SDS011;6732;51.044;3.746;2023-03-21T04:24:10;12.80;;;6.47;;
13325;SDS011;6732;51.044;3.746;2023-03-21T04:26:38;10.77;;;5.47;;
13325;SDS011;6732;51.044;3.746;2023-03-21T04:29:04;10.93;;;5.73;;
13325;SDS011;6732;51.044;3.746;2023-03-21T04:31:31;14.57;;;6.83;;
13325;SDS011;6732;51.044;3.746;2023-03-21T04:33:59;13.43;;;5.63;;
13325;SDS011;6732;51.044;3.746;2023-03-21T04:36:26;13.70;;;6.03;;
13325;SDS011;6732;51.044;3.746;2023-03-21T04:38:55;13.23;;;6.87;;
13325;SDS011;6732;51.044;3.746;2023-03-21T04:41:26;10.13;;;6.43;;
13325;SDS011;6732;51.044;3.746;2023-03-21T04:43:52;12.30;;;6.70;;
13325;SDS011;6732;51.044;3.746;2023-03-21T04:46:18;12.03;;;6.63;;
13325;SDS011;6732;51.044;3.746;2023-03-21T04:48:45;15.23;;;7.13;;
13325;SDS011;6732;51.044;3.746;2023-03-21T04:51:11;11.77;;;6.90;;
13325;SDS011;6732;51.044;3.746;2023-03-21T04:53:37;9.30;;;6.30;;
13325;SDS011;6732;51.044;3.746;2023-03-21T04:56:07;10.23;;;5.93;;
13325;SDS011;6732;51.044;3.746;2023-03-21T04:58:33;10.93;;;6.50;;
13325;SDS011;6732;51.044;3.746;2023-03-21T05:00:59;13.17;;;7.20;;
13325;SDS011;6732;51.044;3.746;2023-03-21T05:03:26;13.37;;;6.77;;
13325;SDS011;6732;51.044;3.746;2023-03-21T05:05:59;17.83;;;7.10;;
13325;SDS011;6732;51.044;3.746;2023-03-21T05:08:25;16.43;;;7.97;;
13325;SDS011;6732;51.044;3.746;2023-03-21T05:10:52;12.33;;;6.53;;
13325;SDS011;6732;51.044;3.746;2023-03-21T05:13:18;14.20;;;7.37;;
13325;SDS011;6732;51.044;3.746;2023-03-21T05:15:45;12.63;;;7.80;;
13325;SDS011;6732;51.044;3.746;2023-03-21T05:18:11;18.10;;;7.77;;
13325;SDS011;6732;51.044;3.746;2023-03-21T05:20:38;13.73;;;7.63;;
13325;SDS011;6732;51.044;3.746;2023-03-21T05:23:10;13.40;;;8.10;;
13325;SDS011;6732;51.044;3.746;2023-03-21T05:25:37;13.13;;;7.47;;
13325;SDS011;6732;51.044;3.746;2023-03-21T05:28:04;17.90;;;8.03;;
13325;SDS011;6732;51.044;3.746;2023-03-21T05:30:31;17.23;;;7.97;;
13325;SDS011;6732;51.044;3.746;2023-03-21T05:32:58;13.07;;;7.90;;
13325;SDS011;6732;51.044;3.746;2023-03-21T05:35:25;19.00;;;9.23;;
13325;SDS011;6732;51.044;3.746;2023-03-21T05:37:51;13.70;;;8.30;;
13325;SDS011;6732;51.044;3.746;2023-03-21T05:40:18;13.13;;;8.00;;
13325;SDS011;6732;51.044;3.746;2023-03-21T05:42:45;12.77;;;8.70;;
13325;SDS011;6732;51.044;3.746;2023-03-21T05:45:11;15.23;;;8.00;;
13325;SDS011;6732;51.044;3.746;2023-03-21T05:47:38;14.20;;;8.23;;
13325;SDS011;6732;51.044;3.746;2023-03-21T05:50:04;12.20;;;7.90;;
13325;SDS011;6732;51.044;3.746;2023-03-21T05:52:31;15.57;;;8.43;;
13325;SDS011;6732;51.044;3.746;2023-03-21T05:54:57;14.03;;;7.97;;
13325;SDS011;6732;51.044;3.746;2023-03-21T05:57:23;15.00;;;8.73;;
13325;SDS011;6732;51.044;3.746;2023-03-21T05:59:53;13.83;;;8.80;;
13325;SDS011;6732;51.044;3.746;2023-03-21T06:02:19;13.77;;;9.40;;
13325;SDS011;6732;51.044;3.746;2023-03-21T06:04:46;13.63;;;8.70;;
13325;SDS011;6732;51.044;3.746;2023-03-21T06:07:12;16.67;;;9.63;;
13325;SDS011;6732;51.044;3.746;2023-03-21T06:09:39;17.60;;;8.73;;
13325;SDS011;6732;51.044;3.746;2023-03-21T06:12:05;17.80;;;9.60;;
13325;SDS011;6732;51.044;3.746;2023-03-21T06:14:31;16.73;;;9.57;;
13325;SDS011;6732;51.044;3.746;2023-03-21T06:16:57;16.30;;;11.60;;
13325;SDS011;6732;51.044;3.746;2023-03-21T06:19:24;19.90;;;10.60;;
13325;SDS011;6732;51.044;3.746;2023-03-21T06:21:50;17.43;;;9.93;;
13325;SDS011;6732;51.044;3.746;2023-03-21T06:24:17;16.53;;;10.37;;
13325;SDS011;6732;51.044;3.746;2023-03-21T06:26:43;15.13;;;9.73;;
13325;SDS011;6732;51.044;3.746;2023-03-21T06:29:10;14.57;;;10.13;;
13325;SDS011;6732;51.044;3.746;2023-03-21T06:31:37;20.00;;;10.70;;
13325;SDS011;6732;51.044;3.746;2023-03-21T06:34:03;16.77;;;10.83;;
13325;SDS011;6732;51.044;3.746;2023-03-21T06:36:29;17.63;;;9.97;;
13325;SDS011;6732;51.044;3.746;2023-03-21T06:38:56;19.23;;;10.37;;
13325;SDS011;6732;51.044;3.746;2023-03-21T06:41:22;16.97;;;10.03;;
13325;SDS011;6732;51.044;3.746;2023-03-21T06:43:48;19.50;;;10.60;;
13325;SDS011;6732;51.044;3.746;2023-03-21T06:46:15;15.73;;;9.83;;
13325;SDS011;6732;51.044;3.746;2023-03-21T06:48:41;15.47;;;9.70;;
13325;SDS011;6732;51.044;3.746;2023-03-21T06:51:10;20.00;;;9.67;;
13325;SDS011;6732;51.044;3.746;2023-03-21T06:53:37;18.97;;;9.43;;
13325;SDS011;6732;51.044;3.746;2023-03-21T06:56:03;14.60;;;8.50;;
13325;SDS011;6732;51.044;3.746;2023-03-21T06:58:30;13.33;;;8.67;;
13325;SDS011;6732;51.044;3.746;2023-03-21T07:00:59;18.37;;;8.87;;
13325;SDS011;6732;51.044;3.746;2023-03-21T07:03:27;14.67;;;8.83;;
13325;SDS011;6732;51.044;3.746;2023-03-21T07:05:53;12.63;;;8.60;;
13325;SDS011;6732;51.044;3.746;2023-03-21T07:08:20;13.57;;;7.97;;
13325;SDS011;6732;51.044;3.746;2023-03-21T07:10:46;15.30;;;8.20;;
13325;SDS011;6732;51.044;3.746;2023-03-21T07:13:12;14.20;;;8.37;;
13325;SDS011;6732;51.044;3.746;2023-03-21T07:15:39;14.20;;;7.87;;
13325;SDS011;6732;51.044;3.746;2023-03-21T07:18:06;16.60;;;7.97;;
13325;SDS011;6732;51.044;3.746;2023-03-21T07:20:32;12.30;;;7.57;;
13325;SDS011;6732;51.044;3.746;2023-03-21T07:22:59;14.93;;;7.63;;
13325;SDS011;6732;51.044;3.746;2023-03-21T07:25:25;13.63;;;7.00;;
13325;SDS011;6732;51.044;3.746;2023-03-21T07:27:52;13.10;;;7.50;;
13325;SDS011;6732;51.044;3.746;2023-03-21T07:30:18;13.50;;;7.47;;
13325;SDS011;6732;51.044;3.746;2023-03-21T07:32:44;13.90;;;6.80;;
13325;SDS011;6732;51.044;3.746;2023-03-21T07:35:12;15.03;;;7.40;;
13325;SDS011;6732;51.044;3.746;2023-03-21T07:37:39;12.63;;;6.67;;
13325;SDS011;6732;51.044;3.746;2023-03-21T07:40:05;12.77;;;7.77;;
13325;SDS011;6732;51.044;3.746;2023-03-21T07:42:35;11.47;;;7.17;;
13325;SDS011;6732;51.044;3.746;2023-03-21T07:45:02;12.60;;;7.47;;
13325;SDS011;6732;51.044;3.746;2023-03-21T07:47:29;11.20;;;6.63;;
13325;SDS011;6732;51.044;3.746;2023-03-21T07:49:56;9.97;;;6.80;;
13325;SDS011;6732;51.044;3.746;2023-03-21T07:52:22;11.23;;;7.30;;
13325;SDS011;6732;51.044;3.746;2023-03-21T07:54:49;12.20;;;6.67;;
13325;SDS011;6732;51.044;3.746;2023-03-21T07:57:15;12.03;;;7.00;;
13325;SDS011;6732;51.044;3.746;2023-03-21T07:59:42;12.57;;;6.70;;
13325;SDS011;6732;51.044;3.746;2023-03-21T08:02:14;11.73;;;6.20;;
13325;SDS011;6732;51.044;3.746;2023-03-21T08:04:41;9.47;;;5.53;;
13325;SDS011;6732;51.044;3.746;2023-03-21T08:07:08;14.10;;;5.87;;
13325;SDS011;6732;51.044;3.746;2023-03-21T08:09:34;11.37;;;5.33;;
13325;SDS011;6732;51.044;3.746;2023-03-21T08:12:01;11.40;;;5.77;;
13325;SDS011;6732;51.044;3.746;2023-03-21T08:14:28;11.97;;;5.57;;
13325;SDS011;6732;51.044;3.746;2023-03-21T08:16:54;12.70;;;5.47;;
13325;SDS011;6732;51.044;3.746;2023-03-21T08:19:20;13.17;;;5.57;;
13325;SDS011;6732;51.044;3.746;2023-03-21T08:21:47;11.63;;;5.60;;
13325;SDS011;6732;51.044;3.746;2023-03-21T08:24:14;13.20;;;5.57;;
13325;SDS011;6732;51.044;3.746;2023-03-21T08:26:41;12.47;;;5.73;;
13325;SDS011;6732;51.044;3.746;2023-03-21T08:29:08;11.10;;;5.80;;
13325;SDS011;6732;51.044;3.746;2023-03-21T08:31:35;10.07;;;5.57;;
13325;SDS011;6732;51.044;3.746;2023-03-21T08:34:01;9.77;;;5.00;;
13325;SDS011;6732;51.044;3.746;2023-03-21T08:36:28;10.50;;;5.50;;
13325;SDS011;6732;51.044;3.746;2023-03-21T08:38:55;11.07;;;5.10;;
13325;SDS011;6732;51.044;3.746;2023-03-21T08:41:29;10.47;;;5.17;;
13325;SDS011;6732;51.044;3.746;2023-03-21T08:43:56;8.13;;;5.33;;
13325;SDS011;6732;51.044;3.746;2023-03-21T08:46:22;12.23;;;5.70;;
13325;SDS011;6732;51.044;3.746;2023-03-21T08:48:48;16.83;;;5.13;;
13325;SDS011;6732;51.044;3.746;2023-03-21T08:51:14;9.33;;;5.20;;
13325;SDS011;6732;51.044;3.746;2023-03-21T08:53:40;9.90;;;5.00;;
13325;SDS011;6732;51.044;3.746;2023-03-21T08:56:08;8.70;;;5.07;;
13325;SDS011;6732;51.044;3.746;2023-03-21T08:58:35;11.67;;;4.53;;
13325;SDS011;6732;51.044;3.746;2023-03-21T09:01:01;10.97;;;4.70;;
13325;SDS011;6732;51.044;3.746;2023-03-21T09:03:28;11.00;;;5.10;;
13325;SDS011;6732;51.044;3.746;2023-03-21T09:05:55;12.10;;;5.17;;
13325;SDS011;6732;51.044;3.746;2023-03-21T09:08:23;8.33;;;4.83;;
13325;SDS011;6732;51.044;3.746;2023-03-21T09:10:53;9.07;;;4.80;;
13325;SDS011;6732;51.044;3.746;2023-03-21T09:13:20;15.63;;;4.90;;
13325;SDS011;6732;51.044;3.746;2023-03-21T09:15:46;11.67;;;5.20;;
13325;SDS011;6732;51.044;3.746;2023-03-21T09:18:13;9.00;;;4.23;;
13325;SDS011;6732;51.044;3.746;2023-03-21T09:20:41;11.67;;;5.70;;
13325;SDS011;6732;51.044;3.746;2023-03-21T09:23:08;9.23;;;4.60;;
13325;SDS011;6732;51.044;3.746;2023-03-21T09:25:35;12.30;;;5.47;;
13325;SDS011;6732;51.044;3.746;2023-03-21T09:28:03;7.87;;;4.53;;
13325;SDS011;6732;51.044;3.746;2023-03-21T09:30:30;8.37;;;4.63;;
13325;SDS011;6732;51.044;3.746;2023-03-21T09:33:00;11.13;;;4.90;;
13325;SDS011;6732;51.044;3.746;2023-03-21T09:35:28;12.07;;;5.53;;
13325;SDS011;6732;51.044;3.746;2023-03-21T09:37:55;10.30;;;4.57;;
13325;SDS011;6732;51.044;3.746;2023-03-21T09:40:48;9.83;;;4.63;;
13325;SDS011;6732;51.044;3.746;2023-03-21T09:43:14;12.83;;;4.90;;
13325;SDS011;6732;51.044;3.746;2023-03-21T09:45:54;9.40;;;4.47;;
13325;SDS011;6732;51.044;3.746;2023-03-21T09:48:36;7.53;;;4.50;;
13325;SDS011;6732;51.044;3.746;2023-03-21T09:51:07;8.03;;;4.40;;
13325;SDS011;6732;51.044;3.746;2023-03-21T09:53:36;8.97;;;4.90;;
13325;SDS011;6732;51.044;3.746;2023-03-21T09:56:04;9.13;;;4.87;;
13325;SDS011;6732;51.044;3.746;2023-03-21T09:58:32;8.90;;;4.57;;
13325;SDS011;6732;51.044;3.746;2023-03-21T10:01:15;7.73;;;4.23;;
13325;SDS011;6732;51.044;3.746;2023-03-21T10:04:04;8.43;;;4.70;;
13325;SDS011;6732;51.044;3.746;2023-03-21T10:06:33;8.70;;;4.50;;
13325;SDS011;6732;51.044;3.746;2023-03-21T10:09:07;6.93;;;4.50;;
13325;SDS011;6732;51.044;3.746;2023-03-21T10:11:42;8.80;;;4.37;;
13325;SDS011;6732;51.044;3.746;2023-03-21T10:14:15;11.10;;;4.50;;
13325;SDS011;6732;51.044;3.746;2023-03-21T10:16:45;10.63;;;5.10;;
13325;SDS011;6732;51.044;3.746;2023-03-21T10:19:13;14.77;;;5.30;;
13325;SDS011;6732;51.044;3.746;2023-03-21T10:21:40;14.30;;;5.87;;
13325;SDS011;6732;51.044;3.746;2023-03-21T10:24:11;7.97;;;4.43;;
13325;SDS011;6732;51.044;3.746;2023-03-21T10:26:38;12.20;;;5.13;;
13325;SDS011;6732;51.044;3.746;2023-03-21T10:29:04;9.83;;;4.40;;
13325;SDS011;6732;51.044;3.746;2023-03-21T10:31:31;9.77;;;4.50;;
13325;SDS011;6732;51.044;3.746;2023-03-21T10:33:59;13.53;;;5.33;;
13325;SDS011;6732;51.044;3.746;2023-03-21T10:36:28;15.77;;;5.40;;
13325;SDS011;6732;51.044;3.746;2023-03-21T10:39:07;7.37;;;4.47;;
13325;SDS011;6732;51.044;3.746;2023-03-21T10:41:38;14.67;;;5.03;;
13325;SDS011;6732;51.044;3.746;2023-03-21T10:46:31;8.35;;;4.55;;
13325;SDS011;6732;51.044;3.746;2023-03-21T10:48:57;9.87;;;4.90;;
13325;SDS011;6732;51.044;3.746;2023-03-21T10:51:27;9.73;;;4.63;;
13325;SDS011;6732;51.044;3.746;2023-03-21T10:54:00;13.00;;;5.23;;
13325;SDS011;6732;51.044;3.746;2023-03-21T10:56:29;8.97;;;5.27;;
13325;SDS011;6732;51.044;3.746;2023-03-21T10:58:57;7.80;;;4.90;;
13325;SDS011;6732;51.044;3.746;2023-03-21T11:01:33;12.52;;;5.43;;
13325;SDS011;6732;51.044;3.746;2023-03-21T11:04:04;13.30;;;5.40;;
13325;SDS011;6732;51.044;3.746;2023-03-21T11:06:31;10.45;;;5.13;;
13325;SDS011;6732;51.044;3.746;2023-03-21T11:09:04;8.97;;;5.03;;
13325;SDS011;6732;51.044;3.746;2023-03-21T11:11:36;7.57;;;4.80;;
13325;SDS011;6732;51.044;3.746;2023-03-21T11:14:04;7.87;;;4.70;;
13325;SDS011;6732;51.044;3.746;2023-03-21T11:19:02;7.20;;;4.20;;
13325;SDS011;6732;51.044;3.746;2023-03-21T11:21:36;9.10;;;4.57;;
13325;SDS011;6732;51.044;3.746;2023-03-21T11:24:02;8.25;;;4.10;;
13325;SDS011;6732;51.044;3.746;2023-03-21T11:26:31;8.23;;;4.35;;
13325;SDS011;6732;51.044;3.746;2023-03-21T11:29:00;9.63;;;4.55;;
13325;SDS011;6732;51.044;3.746;2023-03-21T11:31:37;6.73;;;4.17;;
13325;SDS011;6732;51.044;3.746;2023-03-21T11:34:07;6.30;;;4.05;;
13325;SDS011;6732;51.044;3.746;2023-03-21T11:36:35;6.57;;;3.67;;
13325;SDS011;6732;51.044;3.746;2023-03-21T11:41:34;5.47;;;3.53;;
13325;SDS011;6732;51.044;3.746;2023-03-21T11:44:04;9.65;;;3.95;;
13325;SDS011;6732;51.044;3.746;2023-03-21T11:46:31;8.45;;;3.80;;
13325;SDS011;6732;51.044;3.746;2023-03-21T11:48:57;7.18;;;3.63;;
13325;SDS011;6732;51.044;3.746;2023-03-21T11:56:33;9.82;;;3.65;;
13325;SDS011;6732;51.044;3.746;2023-03-21T11:59:23;7.97;;;4.22;;
13325;SDS011;6732;51.044;3.746;2023-03-21T12:06:45;12.10;;;4.20;;
13325;SDS011;6732;51.044;3.746;2023-03-21T12:11:54;8.02;;;3.60;;
13325;SDS011;6732;51.044;3.746;2023-03-21T12:25:09;9.18;;;3.60;;
13325;SDS011;6732;51.044;3.746;2023-03-21T12:32:43;5.88;;;3.90;;
13325;SDS011;6732;51.044;3.746;2023-03-21T12:35:23;6.82;;;4.18;;
13325;SDS011;6732;51.044;3.746;2023-03-21T12:38:01;8.05;;;3.88;;
13325;SDS011;6732;51.044;3.746;2023-03-21T12:45:40;7.55;;;3.60;;
13325;SDS011;6732;51.044;3.746;2023-03-21T12:48:16;7.05;;;3.90;;
13325;SDS011;6732;51.044;3.746;2023-03-21T12:50:43;9.23;;;3.95;;
13325;SDS011;6732;51.044;3.746;2023-03-21T12:56:08;7.70;;;4.25;;
13325;SDS011;6732;51.044;3.746;2023-03-21T12:58:39;7.47;;;3.72;;
13325;SDS011;6732;51.044;3.746;2023-03-21T13:01:06;5.72;;;3.70;;
13325;SDS011;6732;51.044;3.746;2023-03-21T13:03:41;6.05;;;3.63;;
13325;SDS011;6732;51.044;3.746;2023-03-21T13:06:11;8.95;;;4.47;;
13325;SDS011;6732;51.044;3.746;2023-03-21T13:08:47;5.25;;;4.45;;
13325;SDS011;6732;51.044;3.746;2023-03-21T13:11:16;11.00;;;4.25;;
13325;SDS011;6732;51.044;3.746;2023-03-21T13:24:24;6.30;;;4.35;;
13325;SDS011;6732;51.044;3.746;2023-03-21T13:26:55;8.02;;;4.47;;
13325;SDS011;6732;51.044;3.746;2023-03-21T13:32:14;10.45;;;4.68;;
13325;SDS011;6732;51.044;3.746;2023-03-21T13:34:42;9.50;;;4.38;;
13325;SDS011;6732;51.044;3.746;2023-03-21T13:37:14;8.43;;;4.53;;
13325;SDS011;6732;51.044;3.746;2023-03-21T13:39:44;7.25;;;4.50;;
13325;SDS011;6732;51.044;3.746;2023-03-21T13:42:21;6.38;;;4.32;;
13325;SDS011;6732;51.044;3.746;2023-03-21T13:44:54;8.25;;;4.25;;
13325;SDS011;6732;51.044;3.746;2023-03-21T13:47:38;7.55;;;4.50;;
13325;SDS011;6732;51.044;3.746;2023-03-21T13:52:40;6.28;;;4.38;;
13325;SDS011;6732;51.044;3.746;2023-03-21T13:55:14;9.05;;;5.00;;
13325;SDS011;6732;51.044;3.746;2023-03-21T13:57:45;6.47;;;4.07;;
13325;SDS011;6732;51.044;3.746;2023-03-21T14:00:28;7.45;;;4.40;;
13325;SDS011;6732;51.044;3.746;2023-03-21T14:02:58;10.57;;;5.38;;
13325;SDS011;6732;51.044;3.746;2023-03-21T14:05:25;10.32;;;5.45;;
13325;SDS011;6732;51.044;3.746;2023-03-21T14:07:54;10.80;;;5.57;;
13325;SDS011;6732;51.044;3.746;2023-03-21T14:10:22;8.50;;;4.97;;
13325;SDS011;6732;51.044;3.746;2023-03-21T14:12:51;7.68;;;4.95;;
13325;SDS011;6732;51.044;3.746;2023-03-21T14:15:19;9.05;;;5.22;;
13325;SDS011;6732;51.044;3.746;2023-03-21T14:17:52;7.30;;;4.90;;
13325;SDS011;6732;51.044;3.746;2023-03-21T14:20:26;10.25;;;5.88;;
13325;SDS011;6732;51.044;3.746;2023-03-21T14:22:52;10.23;;;4.68;;
13325;SDS011;6732;51.044;3.746;2023-03-21T14:25:20;10.80;;;4.97;;
13325;SDS011;6732;51.044;3.746;2023-03-21T14:27:48;7.72;;;4.60;;
13325;SDS011;6732;51.044;3.746;2023-03-21T14:30:48;7.13;;;4.40;;
13325;SDS011;6732;51.044;3.746;2023-03-21T14:35:46;4.88;;;3.83;;
13325;SDS011;6732;51.044;3.746;2023-03-21T14:38:23;8.30;;;3.75;;
13325;SDS011;6732;51.044;3.746;2023-03-21T14:40:52;3.67;;;3.30;;
13325;SDS011;6732;51.044;3.746;2023-03-21T14:43:20;4.80;;;3.40;;
13325;SDS011;6732;51.044;3.746;2023-03-21T14:45:47;5.32;;;3.85;;
13325;SDS011;6732;51.044;3.746;2023-03-21T14:48:15;4.22;;;3.28;;
13325;SDS011;6732;51.044;3.746;2023-03-21T14:50:45;5.88;;;3.80;;
13325;SDS011;6732;51.044;3.746;2023-03-21T14:53:28;4.65;;;3.47;;
13325;SDS011;6732;51.044;3.746;2023-03-21T14:55:58;3.28;;;2.97;;
13325;SDS011;6732;51.044;3.746;2023-03-21T14:58:26;4.97;;;3.70;;
13325;SDS011;6732;51.044;3.746;2023-03-21T15:00:54;5.65;;;3.20;;
13325;SDS011;6732;51.044;3.746;2023-03-21T15:03:21;4.60;;;3.05;;
13325;SDS011;6732;51.044;3.746;2023-03-21T15:05:48;3.17;;;2.88;;
13325;SDS011;6732;51.044;3.746;2023-03-21T15:08:16;4.55;;;3.42;;
13325;SDS011;6732;51.044;3.746;2023-03-21T15:10:56;6.00;;;3.20;;
13325;SDS011;6732;51.044;3.746;2023-03-21T15:13:30;3.90;;;2.80;;
13325;SDS011;6732;51.044;3.746;2023-03-21T15:15:57;6.28;;;2.97;;
13325;SDS011;6732;51.044;3.746;2023-03-21T15:18:29;2.97;;;2.67;;
13325;SDS011;6732;51.044;3.746;2023-03-21T15:21:01;4.55;;;2.72;;
13325;SDS011;6732;51.044;3.746;2023-03-21T15:25:57;5.15;;;2.80;;
13325;SDS011;6732;51.044;3.746;2023-03-21T15:28:26;7.85;;;2.83;;
13325;SDS011;6732;51.044;3.746;2023-03-21T15:30:52;5.32;;;2.85;;
13325;SDS011;6732;51.044;3.746;2023-03-21T15:33:19;3.58;;;2.58;;
13325;SDS011;6732;51.044;3.746;2023-03-21T15:35:49;2.72;;;2.20;;
13325;SDS011;6732;51.044;3.746;2023-03-21T15:38:37;5.47;;;2.55;;
13325;SDS011;6732;51.044;3.746;2023-03-21T15:41:14;4.80;;;2.33;;
13325;SDS011;6732;51.044;3.746;2023-03-21T15:43:41;6.45;;;2.47;;
13325;SDS011;6732;51.044;3.746;2023-03-21T15:46:14;3.50;;;2.20;;
13325;SDS011;6732;51.044;3.746;2023-03-21T15:48:40;3.10;;;2.72;;
13325;SDS011;6732;51.044;3.746;2023-03-21T15:51:10;5.10;;;2.55;;
13325;SDS011;6732;51.044;3.746;2023-03-21T15:53:39;4.18;;;2.60;;
13325;SDS011;6732;51.044;3.746;2023-03-21T15:56:08;3.38;;;2.60;;
13325;SDS011;6732;51.044;3.746;2023-03-21T15:58:41;6.50;;;2.60;;
13325;SDS011;6732;51.044;3.746;2023-03-21T16:01:13;3.03;;;2.72;;
13325;SDS011;6732;51.044;3.746;2023-03-21T16:03:41;5.07;;;2.63;;
13325;SDS011;6732;51.044;3.746;2023-03-21T16:08:52;4.82;;;2.60;;
13325;SDS011;6732;51.044;3.746;2023-03-21T16:11:35;4.28;;;2.95;;
13325;SDS011;6732;51.044;3.746;2023-03-21T16:14:02;6.20;;;2.75;;
13325;SDS011;6732;51.044;3.746;2023-03-21T16:16:29;5.82;;;2.92;;
13325;SDS011;6732;51.044;3.746;2023-03-21T16:18:57;3.60;;;2.53;;
13325;SDS011;6732;51.044;3.746;2023-03-21T16:21:24;6.13;;;3.30;;
13325;SDS011;6732;51.044;3.746;2023-03-21T16:23:52;4.45;;;2.78;;
13325;SDS011;6732;51.044;3.746;2023-03-21T16:26:22;5.75;;;3.00;;
13325;SDS011;6732;51.044;3.746;2023-03-21T16:28:49;5.80;;;2.85;;
13325;SDS011;6732;51.044;3.746;2023-03-21T16:31:21;5.50;;;2.80;;
13325;SDS011;6732;51.044;3.746;2023-03-21T16:33:47;6.15;;;2.80;;
13325;SDS011;6732;51.044;3.746;2023-03-21T16:36:14;3.72;;;2.70;;